sensor_id;sensor_type;location;lat;lon;timestamp;P1;durP1;ratioP1;P2;durP2;ratioP2
4500;SDS011;2263;54.654;9.410;2022-12-07T00:01:33;8.00;;;6.73;;
4500;SDS011;2263;54.654;9.410;2022-12-07T00:04:02;8.53;;;6.10;;
4500;SDS011;2263;54.654;9.410;2022-12-07T00:08:59;9.23;;;6.23;;
4500;SDS011;2263;54.654;9.410;2022-12-07T00:11:26;7.10;;;6.40;;
4500;SDS011;2263;54.654;9.410;2022-12-07T00:13:55;9.10;;;7.20;;
4500;SDS011;2263;54.654;9.410;2022-12-07T00:16:26;9.27;;;7.43;;
4500;SDS011;2263;54.654;9.410;2022-12-07T00:18:55;7.20;;;6.50;;
4500;SDS011;2263;54.654;9.410;2022-12-07T00:21:26;9.17;;;6.93;;
4500;SDS011;2263;54.654;9.410;2022-12-07T00:23:55;7.70;;;6.10;;
4500;SDS011;2263;54.654;9.410;2022-12-07T00:26:24;8.53;;;6.47;;
4500;SDS011;2263;54.654;9.410;2022-12-07T00:28:54;6.30;;;5.70;;
4500;SDS011;2263;54.654;9.410;2022-12-07T00:31:24;8.03;;;6.00;;
4500;SDS011;2263;54.654;9.410;2022-12-07T00:33:52;8.00;;;6.53;;
4500;SDS011;2263;54.654;9.410;2022-12-07T00:36:20;8.10;;;5.93;;
4500;SDS011;2263;54.654;9.410;2022-12-07T00:38:53;6.43;;;5.93;;
4500;SDS011;2263;54.654;9.410;2022-12-07T00:41:22;8.93;;;6.83;;
4500;SDS011;2263;54.654;9.410;2022-12-07T00:43:51;7.33;;;6.37;;
4500;SDS011;2263;54.654;9.410;2022-12-07T00:46:19;8.80;;;7.00;;
4500;SDS011;2263;54.654;9.410;2022-12-07T00:48:48;10.70;;;7.27;;
4500;SDS011;2263;54.654;9.410;2022-12-07T00:51:16;8.67;;;7.37;;
4500;SDS011;2263;54.654;9.410;2022-12-07T00:53:45;8.23;;;6.50;;
4500;SDS011;2263;54.654;9.410;2022-12-07T00:56:13;8.17;;;5.93;;
4500;SDS011;2263;54.654;9.410;2022-12-07T00:58:52;6.53;;;5.90;;
4500;SDS011;2263;54.654;9.410;2022-12-07T01:01:24;8.20;;;6.80;;
4500;SDS011;2263;54.654;9.410;2022-12-07T01:03:52;9.80;;;8.00;;
4500;SDS011;2263;54.654;9.410;2022-12-07T01:06:20;6.97;;;6.37;;
4500;SDS011;2263;54.654;9.410;2022-12-07T01:08:48;7.53;;;6.63;;
4500;SDS011;2263;54.654;9.410;2022-12-07T01:11:17;11.50;;;7.53;;
4500;SDS011;2263;54.654;9.410;2022-12-07T01:13:46;12.23;;;7.90;;
4500;SDS011;2263;54.654;9.410;2022-12-07T01:16:14;11.83;;;7.07;;
4500;SDS011;2263;54.654;9.410;2022-12-07T01:18:45;10.10;;;7.00;;
4500;SDS011;2263;54.654;9.410;2022-12-07T01:21:15;8.13;;;6.80;;
4500;SDS011;2263;54.654;9.410;2022-12-07T01:23:44;9.13;;;7.13;;
4500;SDS011;2263;54.654;9.410;2022-12-07T01:26:12;7.30;;;6.40;;
4500;SDS011;2263;54.654;9.410;2022-12-07T01:28:41;10.70;;;7.00;;
4500;SDS011;2263;54.654;9.410;2022-12-07T01:31:17;12.17;;;7.13;;
4500;SDS011;2263;54.654;9.410;2022-12-07T01:33:47;10.67;;;7.07;;
4500;SDS011;2263;54.654;9.410;2022-12-07T01:36:23;8.27;;;6.40;;
4500;SDS011;2263;54.654;9.410;2022-12-07T01:38:53;7.37;;;6.13;;
4500;SDS011;2263;54.654;9.410;2022-12-07T01:41:24;8.10;;;6.30;;
4500;SDS011;2263;54.654;9.410;2022-12-07T01:46:32;7.50;;;6.73;;
4500;SDS011;2263;54.654;9.410;2022-12-07T01:48:59;9.67;;;6.37;;
4500;SDS011;2263;54.654;9.410;2022-12-07T01:51:27;11.13;;;7.57;;
4500;SDS011;2263;54.654;9.410;2022-12-07T01:53:55;7.83;;;6.77;;
4500;SDS011;2263;54.654;9.410;2022-12-07T01:56:23;12.50;;;8.13;;
4500;SDS011;2263;54.654;9.410;2022-12-07T01:58:52;12.80;;;8.33;;
4500;SDS011;2263;54.654;9.410;2022-12-07T02:01:21;7.17;;;6.43;;
4500;SDS011;2263;54.654;9.410;2022-12-07T02:03:49;10.10;;;7.53;;
4500;SDS011;2263;54.654;9.410;2022-12-07T02:06:17;9.20;;;7.37;;
4500;SDS011;2263;54.654;9.410;2022-12-07T02:08:48;9.17;;;7.30;;
4500;SDS011;2263;54.654;9.410;2022-12-07T02:11:16;11.20;;;7.50;;
4500;SDS011;2263;54.654;9.410;2022-12-07T02:13:44;9.77;;;7.00;;
4500;SDS011;2263;54.654;9.410;2022-12-07T02:30:03;10.43;;;7.23;;
4500;SDS011;2263;54.654;9.410;2022-12-07T02:32:40;9.03;;;6.80;;
4500;SDS011;2263;54.654;9.410;2022-12-07T02:35:30;10.40;;;6.77;;
4500;SDS011;2263;54.654;9.410;2022-12-07T02:43:06;11.20;;;7.23;;
4500;SDS011;2263;54.654;9.410;2022-12-07T02:45:38;9.77;;;7.60;;
4500;SDS011;2263;54.654;9.410;2022-12-07T02:48:08;9.37;;;7.00;;
4500;SDS011;2263;54.654;9.410;2022-12-07T02:50:38;10.87;;;7.70;;
4500;SDS011;2263;54.654;9.410;2022-12-07T02:53:05;8.50;;;7.00;;
4500;SDS011;2263;54.654;9.410;2022-12-07T02:55:52;8.50;;;6.90;;
4500;SDS011;2263;54.654;9.410;2022-12-07T03:01:19;9.33;;;7.07;;
4500;SDS011;2263;54.654;9.410;2022-12-07T03:07:32;8.13;;;6.20;;
4500;SDS011;2263;54.654;9.410;2022-12-07T03:18:15;12.93;;;7.10;;
4500;SDS011;2263;54.654;9.410;2022-12-07T03:20:45;11.57;;;8.20;;
4500;SDS011;2263;54.654;9.410;2022-12-07T03:23:15;7.87;;;6.90;;
4500;SDS011;2263;54.654;9.410;2022-12-07T03:25:47;9.63;;;7.43;;
4500;SDS011;2263;54.654;9.410;2022-12-07T03:28:26;8.50;;;6.80;;
4500;SDS011;2263;54.654;9.410;2022-12-07T03:31:13;13.03;;;7.30;;
4500;SDS011;2263;54.654;9.410;2022-12-07T03:42:33;10.83;;;7.30;;
4500;SDS011;2263;54.654;9.410;2022-12-07T03:45:01;8.90;;;7.07;;
4500;SDS011;2263;54.654;9.410;2022-12-07T03:47:31;11.27;;;7.93;;
4500;SDS011;2263;54.654;9.410;2022-12-07T03:50:16;12.60;;;8.43;;
4500;SDS011;2263;54.654;9.410;2022-12-07T03:52:56;14.03;;;7.30;;
4500;SDS011;2263;54.654;9.410;2022-12-07T03:55:45;8.87;;;7.00;;
4500;SDS011;2263;54.654;9.410;2022-12-07T03:58:19;11.03;;;6.90;;
4500;SDS011;2263;54.654;9.410;2022-12-07T04:00:48;14.10;;;7.67;;
4500;SDS011;2263;54.654;9.410;2022-12-07T04:03:16;7.73;;;6.10;;
4500;SDS011;2263;54.654;9.410;2022-12-07T04:05:43;11.70;;;7.40;;
4500;SDS011;2263;54.654;9.410;2022-12-07T04:08:11;12.73;;;7.30;;
4500;SDS011;2263;54.654;9.410;2022-12-07T04:10:38;12.83;;;6.70;;
4500;SDS011;2263;54.654;9.410;2022-12-07T04:13:05;10.00;;;6.50;;
4500;SDS011;2263;54.654;9.410;2022-12-07T04:15:32;7.27;;;6.17;;
4500;SDS011;2263;54.654;9.410;2022-12-07T04:17:59;9.73;;;7.73;;
4500;SDS011;2263;54.654;9.410;2022-12-07T04:20:26;10.03;;;7.90;;
4500;SDS011;2263;54.654;9.410;2022-12-07T04:22:53;10.93;;;8.20;;
4500;SDS011;2263;54.654;9.410;2022-12-07T04:25:20;9.40;;;6.43;;
4500;SDS011;2263;54.654;9.410;2022-12-07T04:27:47;15.80;;;7.40;;
4500;SDS011;2263;54.654;9.410;2022-12-07T04:30:14;8.53;;;6.43;;
4500;SDS011;2263;54.654;9.410;2022-12-07T04:32:42;8.97;;;6.93;;
4500;SDS011;2263;54.654;9.410;2022-12-07T04:35:09;10.30;;;7.57;;
4500;SDS011;2263;54.654;9.410;2022-12-07T04:37:36;9.20;;;6.80;;
4500;SDS011;2263;54.654;9.410;2022-12-07T04:40:06;10.63;;;7.30;;
4500;SDS011;2263;54.654;9.410;2022-12-07T04:42:37;9.60;;;7.00;;
4500;SDS011;2263;54.654;9.410;2022-12-07T04:45:04;11.07;;;7.17;;
4500;SDS011;2263;54.654;9.410;2022-12-07T04:47:31;8.87;;;7.73;;
4500;SDS011;2263;54.654;9.410;2022-12-07T04:49:58;11.50;;;6.40;;
4500;SDS011;2263;54.654;9.410;2022-12-07T04:52:26;9.30;;;7.50;;
4500;SDS011;2263;54.654;9.410;2022-12-07T04:54:53;10.03;;;6.53;;
4500;SDS011;2263;54.654;9.410;2022-12-07T04:57:20;10.27;;;7.03;;
4500;SDS011;2263;54.654;9.410;2022-12-07T04:59:47;9.57;;;6.27;;
4500;SDS011;2263;54.654;9.410;2022-12-07T05:02:14;9.40;;;7.40;;
4500;SDS011;2263;54.654;9.410;2022-12-07T05:04:41;9.10;;;6.10;;
4500;SDS011;2263;54.654;9.410;2022-12-07T05:07:08;10.90;;;6.90;;
4500;SDS011;2263;54.654;9.410;2022-12-07T05:09:35;13.47;;;8.80;;
4500;SDS011;2263;54.654;9.410;2022-12-07T05:12:02;8.03;;;6.00;;
4500;SDS011;2263;54.654;9.410;2022-12-07T05:14:29;8.67;;;7.20;;
4500;SDS011;2263;54.654;9.410;2022-12-07T05:16:56;8.60;;;7.07;;
4500;SDS011;2263;54.654;9.410;2022-12-07T05:19:24;8.03;;;6.57;;
4500;SDS011;2263;54.654;9.410;2022-12-07T05:21:52;8.83;;;6.53;;
4500;SDS011;2263;54.654;9.410;2022-12-07T05:24:19;8.30;;;6.23;;
4500;SDS011;2263;54.654;9.410;2022-12-07T05:26:46;8.80;;;6.70;;
4500;SDS011;2263;54.654;9.410;2022-12-07T05:29:14;7.83;;;6.90;;
4500;SDS011;2263;54.654;9.410;2022-12-07T05:31:43;6.43;;;5.70;;
4500;SDS011;2263;54.654;9.410;2022-12-07T05:34:11;8.90;;;6.70;;
4500;SDS011;2263;54.654;9.410;2022-12-07T05:36:38;10.00;;;6.40;;
4500;SDS011;2263;54.654;9.410;2022-12-07T05:39:05;11.67;;;8.30;;
4500;SDS011;2263;54.654;9.410;2022-12-07T05:41:33;8.37;;;5.77;;
4500;SDS011;2263;54.654;9.410;2022-12-07T05:44:19;9.47;;;6.90;;
4500;SDS011;2263;54.654;9.410;2022-12-07T05:46:46;7.97;;;6.60;;
4500;SDS011;2263;54.654;9.410;2022-12-07T05:49:13;12.73;;;8.43;;
4500;SDS011;2263;54.654;9.410;2022-12-07T05:51:40;6.27;;;5.30;;
4500;SDS011;2263;54.654;9.410;2022-12-07T05:54:07;12.03;;;6.63;;
4500;SDS011;2263;54.654;9.410;2022-12-07T05:56:34;8.47;;;5.57;;
4500;SDS011;2263;54.654;9.410;2022-12-07T05:59:01;9.57;;;7.00;;
4500;SDS011;2263;54.654;9.410;2022-12-07T06:01:47;7.93;;;5.80;;
4500;SDS011;2263;54.654;9.410;2022-12-07T06:04:14;8.40;;;6.60;;
4500;SDS011;2263;54.654;9.410;2022-12-07T06:06:41;7.63;;;6.77;;
4500;SDS011;2263;54.654;9.410;2022-12-07T06:09:09;20.47;;;12.40;;
4500;SDS011;2263;54.654;9.410;2022-12-07T06:11:36;30.77;;;21.03;;
4500;SDS011;2263;54.654;9.410;2022-12-07T06:14:22;64.63;;;37.77;;
4500;SDS011;2263;54.654;9.410;2022-12-07T06:16:49;49.53;;;34.00;;
4500;SDS011;2263;54.654;9.410;2022-12-07T06:19:16;38.37;;;25.67;;
4500;SDS011;2263;54.654;9.410;2022-12-07T06:21:45;50.13;;;30.30;;
4500;SDS011;2263;54.654;9.410;2022-12-07T06:24:13;52.10;;;30.27;;
4500;SDS011;2263;54.654;9.410;2022-12-07T06:26:41;72.73;;;29.47;;
4500;SDS011;2263;54.654;9.410;2022-12-07T06:29:09;48.90;;;28.10;;
4500;SDS011;2263;54.654;9.410;2022-12-07T06:31:37;44.23;;;26.37;;
4500;SDS011;2263;54.654;9.410;2022-12-07T06:34:15;44.63;;;24.37;;
4500;SDS011;2263;54.654;9.410;2022-12-07T06:36:44;38.87;;;22.03;;
4500;SDS011;2263;54.654;9.410;2022-12-07T06:39:12;33.70;;;21.60;;
4500;SDS011;2263;54.654;9.410;2022-12-07T06:41:39;31.57;;;19.40;;
4500;SDS011;2263;54.654;9.410;2022-12-07T06:44:06;36.60;;;19.40;;
4500;SDS011;2263;54.654;9.410;2022-12-07T06:46:34;29.43;;;18.23;;
4500;SDS011;2263;54.654;9.410;2022-12-07T06:49:04;28.13;;;16.20;;
4500;SDS011;2263;54.654;9.410;2022-12-07T06:51:32;27.03;;;16.73;;
4500;SDS011;2263;54.654;9.410;2022-12-07T06:54:04;25.87;;;15.23;;
4500;SDS011;2263;54.654;9.410;2022-12-07T06:56:31;19.80;;;13.97;;
4500;SDS011;2263;54.654;9.410;2022-12-07T06:58:58;20.60;;;13.67;;
4500;SDS011;2263;54.654;9.410;2022-12-07T07:01:25;20.20;;;12.90;;
4500;SDS011;2263;54.654;9.410;2022-12-07T07:03:52;21.23;;;12.10;;
4500;SDS011;2263;54.654;9.410;2022-12-07T07:06:20;16.17;;;10.80;;
4500;SDS011;2263;54.654;9.410;2022-12-07T07:08:47;14.13;;;9.90;;
4500;SDS011;2263;54.654;9.410;2022-12-07T07:11:14;19.00;;;9.77;;
4500;SDS011;2263;54.654;9.410;2022-12-07T07:13:41;23.73;;;11.30;;
4500;SDS011;2263;54.654;9.410;2022-12-07T07:16:08;16.23;;;8.43;;
4500;SDS011;2263;54.654;9.410;2022-12-07T07:18:35;16.53;;;8.13;;
4500;SDS011;2263;54.654;9.410;2022-12-07T07:21:03;13.70;;;9.30;;
4500;SDS011;2263;54.654;9.410;2022-12-07T07:23:30;12.00;;;6.97;;
4500;SDS011;2263;54.654;9.410;2022-12-07T07:25:57;7.73;;;5.57;;
4500;SDS011;2263;54.654;9.410;2022-12-07T07:28:24;12.13;;;5.83;;
4500;SDS011;2263;54.654;9.410;2022-12-07T07:30:51;10.73;;;5.77;;
4500;SDS011;2263;54.654;9.410;2022-12-07T07:33:18;16.20;;;6.03;;
4500;SDS011;2263;54.654;9.410;2022-12-07T07:35:46;9.63;;;4.53;;
4500;SDS011;2263;54.654;9.410;2022-12-07T07:38:13;5.60;;;4.07;;
4500;SDS011;2263;54.654;9.410;2022-12-07T07:40:40;8.07;;;3.63;;
4500;SDS011;2263;54.654;9.410;2022-12-07T07:43:07;4.60;;;3.63;;
4500;SDS011;2263;54.654;9.410;2022-12-07T07:45:35;4.30;;;3.00;;
4500;SDS011;2263;54.654;9.410;2022-12-07T07:48:02;8.00;;;2.70;;
4500;SDS011;2263;54.654;9.410;2022-12-07T07:50:29;7.60;;;2.93;;
4500;SDS011;2263;54.654;9.410;2022-12-07T07:52:57;7.47;;;3.13;;
4500;SDS011;2263;54.654;9.410;2022-12-07T07:55:24;6.80;;;3.57;;
4500;SDS011;2263;54.654;9.410;2022-12-07T07:57:51;5.17;;;2.03;;
4500;SDS011;2263;54.654;9.410;2022-12-07T08:00:20;7.33;;;2.20;;
4500;SDS011;2263;54.654;9.410;2022-12-07T08:02:49;4.70;;;2.27;;
4500;SDS011;2263;54.654;9.410;2022-12-07T08:05:16;8.77;;;2.60;;
4500;SDS011;2263;54.654;9.410;2022-12-07T08:07:43;3.00;;;2.67;;
4500;SDS011;2263;54.654;9.410;2022-12-07T08:10:11;3.90;;;1.70;;
4500;SDS011;2263;54.654;9.410;2022-12-07T08:12:40;2.93;;;2.20;;
4500;SDS011;2263;54.654;9.410;2022-12-07T08:15:27;3.00;;;2.13;;
4500;SDS011;2263;54.654;9.410;2022-12-07T08:17:56;1.53;;;0.93;;
4500;SDS011;2263;54.654;9.410;2022-12-07T08:20:24;1.70;;;1.60;;
4500;SDS011;2263;54.654;9.410;2022-12-07T08:22:51;2.17;;;1.60;;
4500;SDS011;2263;54.654;9.410;2022-12-07T08:25:18;2.10;;;1.90;;
4500;SDS011;2263;54.654;9.410;2022-12-07T08:27:46;2.93;;;1.50;;
4500;SDS011;2263;54.654;9.410;2022-12-07T08:30:13;4.90;;;1.50;;
4500;SDS011;2263;54.654;9.410;2022-12-07T08:32:40;5.93;;;1.57;;
4500;SDS011;2263;54.654;9.410;2022-12-07T08:35:07;1.60;;;1.00;;
4500;SDS011;2263;54.654;9.410;2022-12-07T08:37:35;4.33;;;1.87;;
4500;SDS011;2263;54.654;9.410;2022-12-07T08:40:03;2.87;;;1.57;;
4500;SDS011;2263;54.654;9.410;2022-12-07T08:42:32;2.67;;;1.10;;
4500;SDS011;2263;54.654;9.410;2022-12-07T08:45:07;3.70;;;1.20;;
4500;SDS011;2263;54.654;9.410;2022-12-07T08:47:41;1.50;;;1.30;;
4500;SDS011;2263;54.654;9.410;2022-12-07T08:50:13;2.50;;;0.93;;
4500;SDS011;2263;54.654;9.410;2022-12-07T08:52:41;1.63;;;1.00;;
4500;SDS011;2263;54.654;9.410;2022-12-07T08:55:09;4.10;;;1.10;;
4500;SDS011;2263;54.654;9.410;2022-12-07T08:57:37;4.50;;;1.23;;
4500;SDS011;2263;54.654;9.410;2022-12-07T09:00:06;2.27;;;1.30;;
4500;SDS011;2263;54.654;9.410;2022-12-07T09:02:33;3.07;;;1.47;;
4500;SDS011;2263;54.654;9.410;2022-12-07T09:05:01;3.30;;;1.10;;
4500;SDS011;2263;54.654;9.410;2022-12-07T09:07:28;12.43;;;1.40;;
4500;SDS011;2263;54.654;9.410;2022-12-07T09:09:58;2.50;;;1.07;;
4500;SDS011;2263;54.654;9.410;2022-12-07T09:12:26;3.40;;;1.10;;
4500;SDS011;2263;54.654;9.410;2022-12-07T09:14:53;3.60;;;1.20;;
4500;SDS011;2263;54.654;9.410;2022-12-07T09:17:20;4.03;;;1.10;;
4500;SDS011;2263;54.654;9.410;2022-12-07T09:19:47;6.03;;;1.70;;
4500;SDS011;2263;54.654;9.410;2022-12-07T09:22:14;1.50;;;0.93;;
4500;SDS011;2263;54.654;9.410;2022-12-07T09:24:41;3.43;;;1.20;;
4500;SDS011;2263;54.654;9.410;2022-12-07T09:27:09;1.30;;;0.80;;
4500;SDS011;2263;54.654;9.410;2022-12-07T09:29:36;3.00;;;1.03;;
4500;SDS011;2263;54.654;9.410;2022-12-07T09:32:03;2.90;;;1.30;;
4500;SDS011;2263;54.654;9.410;2022-12-07T09:34:37;4.10;;;1.77;;
4500;SDS011;2263;54.654;9.410;2022-12-07T09:37:04;5.43;;;1.73;;
4500;SDS011;2263;54.654;9.410;2022-12-07T09:39:31;4.33;;;2.20;;
4500;SDS011;2263;54.654;9.410;2022-12-07T09:41:59;4.70;;;2.60;;
4500;SDS011;2263;54.654;9.410;2022-12-07T09:44:29;4.70;;;2.30;;
4500;SDS011;2263;54.654;9.410;2022-12-07T09:46:56;3.20;;;1.77;;
4500;SDS011;2263;54.654;9.410;2022-12-07T09:49:24;5.30;;;2.03;;
4500;SDS011;2263;54.654;9.410;2022-12-07T09:52:00;3.50;;;2.90;;
4500;SDS011;2263;54.654;9.410;2022-12-07T09:54:28;5.10;;;2.57;;
4500;SDS011;2263;54.654;9.410;2022-12-07T09:56:57;2.60;;;1.57;;
4500;SDS011;2263;54.654;9.410;2022-12-07T09:59:25;3.27;;;2.20;;
4500;SDS011;2263;54.654;9.410;2022-12-07T10:01:56;1.70;;;1.57;;
4500;SDS011;2263;54.654;9.410;2022-12-07T10:04:49;1.90;;;1.47;;
4500;SDS011;2263;54.654;9.410;2022-12-07T10:07:17;2.50;;;2.10;;
4500;SDS011;2263;54.654;9.410;2022-12-07T10:09:44;2.77;;;1.80;;
4500;SDS011;2263;54.654;9.410;2022-12-07T10:12:11;1.80;;;1.43;;
4500;SDS011;2263;54.654;9.410;2022-12-07T10:14:51;3.37;;;1.60;;
4500;SDS011;2263;54.654;9.410;2022-12-07T10:17:36;3.20;;;1.20;;
4500;SDS011;2263;54.654;9.410;2022-12-07T10:25:33;1.57;;;1.27;;
4500;SDS011;2263;54.654;9.410;2022-12-07T10:30:59;1.87;;;1.10;;
4500;SDS011;2263;54.654;9.410;2022-12-07T10:41:27;1.50;;;0.90;;
4500;SDS011;2263;54.654;9.410;2022-12-07T10:43:55;2.13;;;0.80;;
4500;SDS011;2263;54.654;9.410;2022-12-07T10:49:21;1.20;;;0.77;;
4500;SDS011;2263;54.654;9.410;2022-12-07T10:54:51;2.23;;;1.17;;
4500;SDS011;2263;54.654;9.410;2022-12-07T11:05:26;3.90;;;1.40;;
4500;SDS011;2263;54.654;9.410;2022-12-07T11:08:17;1.90;;;1.37;;
4500;SDS011;2263;54.654;9.410;2022-12-07T11:11:16;1.70;;;1.10;;
4500;SDS011;2263;54.654;9.410;2022-12-07T11:36:35;1.50;;;1.10;;
4500;SDS011;2263;54.654;9.410;2022-12-07T11:41:48;4.00;;;0.77;;
4500;SDS011;2263;54.654;9.410;2022-12-07T11:47:43;3.90;;;1.17;;
4500;SDS011;2263;54.654;9.410;2022-12-07T11:52:45;1.97;;;0.73;;
4500;SDS011;2263;54.654;9.410;2022-12-07T11:55:29;2.30;;;0.63;;
4500;SDS011;2263;54.654;9.410;2022-12-07T12:00:51;1.43;;;0.80;;
4500;SDS011;2263;54.654;9.410;2022-12-07T12:03:33;2.80;;;0.70;;
4500;SDS011;2263;54.654;9.410;2022-12-07T12:06:04;1.93;;;0.60;;
4500;SDS011;2263;54.654;9.410;2022-12-07T12:08:33;1.13;;;0.70;;
4500;SDS011;2263;54.654;9.410;2022-12-07T12:11:43;2.13;;;1.00;;
4500;SDS011;2263;54.654;9.410;2022-12-07T12:22:55;4.40;;;2.07;;
4500;SDS011;2263;54.654;9.410;2022-12-07T12:25:28;3.60;;;1.87;;
4500;SDS011;2263;54.654;9.410;2022-12-07T12:30:47;7.73;;;2.67;;
4500;SDS011;2263;54.654;9.410;2022-12-07T12:33:37;5.47;;;3.30;;
4500;SDS011;2263;54.654;9.410;2022-12-07T12:38:48;17.87;;;4.47;;
4500;SDS011;2263;54.654;9.410;2022-12-07T12:54:58;7.20;;;2.80;;
4500;SDS011;2263;54.654;9.410;2022-12-07T12:57:27;3.27;;;2.90;;
4500;SDS011;2263;54.654;9.410;2022-12-07T12:59:57;8.47;;;2.47;;
4500;SDS011;2263;54.654;9.410;2022-12-07T13:04:59;11.53;;;3.80;;
4500;SDS011;2263;54.654;9.410;2022-12-07T13:10:27;8.03;;;4.60;;
4500;SDS011;2263;54.654;9.410;2022-12-07T13:20:57;7.80;;;3.73;;
4500;SDS011;2263;54.654;9.410;2022-12-07T13:23:36;6.93;;;3.70;;
4500;SDS011;2263;54.654;9.410;2022-12-07T13:37:08;2.97;;;2.20;;
4500;SDS011;2263;54.654;9.410;2022-12-07T13:39:44;5.40;;;2.07;;
4500;SDS011;2263;54.654;9.410;2022-12-07T13:44:56;4.60;;;2.43;;
4500;SDS011;2263;54.654;9.410;2022-12-07T13:52:56;2.77;;;2.37;;
4500;SDS011;2263;54.654;9.410;2022-12-07T13:55:26;3.97;;;1.57;;
4500;SDS011;2263;54.654;9.410;2022-12-07T13:57:54;3.77;;;2.20;;
4500;SDS011;2263;54.654;9.410;2022-12-07T14:00:23;4.07;;;1.50;;
4500;SDS011;2263;54.654;9.410;2022-12-07T14:02:59;3.03;;;1.80;;
4500;SDS011;2263;54.654;9.410;2022-12-07T14:05:29;1.50;;;1.40;;
4500;SDS011;2263;54.654;9.410;2022-12-07T14:08:00;5.37;;;1.53;;
4500;SDS011;2263;54.654;9.410;2022-12-07T14:16:02;8.90;;;1.30;;
4500;SDS011;2263;54.654;9.410;2022-12-07T14:18:39;2.03;;;1.43;;
4500;SDS011;2263;54.654;9.410;2022-12-07T14:23:37;4.60;;;2.00;;
4500;SDS011;2263;54.654;9.410;2022-12-07T14:26:18;1.20;;;0.77;;
4500;SDS011;2263;54.654;9.410;2022-12-07T14:28:46;1.87;;;1.33;;
4500;SDS011;2263;54.654;9.410;2022-12-07T14:31:15;1.50;;;0.90;;
4500;SDS011;2263;54.654;9.410;2022-12-07T14:33:58;1.47;;;0.70;;
4500;SDS011;2263;54.654;9.410;2022-12-07T14:36:26;1.90;;;1.10;;
4500;SDS011;2263;54.654;9.410;2022-12-07T14:38:53;2.73;;;1.00;;
4500;SDS011;2263;54.654;9.410;2022-12-07T14:41:22;3.30;;;1.53;;
4500;SDS011;2263;54.654;9.410;2022-12-07T14:44:20;1.60;;;1.07;;
4500;SDS011;2263;54.654;9.410;2022-12-07T14:46:52;2.17;;;0.80;;
4500;SDS011;2263;54.654;9.410;2022-12-07T14:49:42;3.10;;;1.20;;
4500;SDS011;2263;54.654;9.410;2022-12-07T14:52:13;2.00;;;0.77;;
4500;SDS011;2263;54.654;9.410;2022-12-07T14:55:03;1.40;;;1.00;;
4500;SDS011;2263;54.654;9.410;2022-12-07T14:57:31;4.40;;;1.00;;
4500;SDS011;2263;54.654;9.410;2022-12-07T14:59:58;1.97;;;0.90;;
4500;SDS011;2263;54.654;9.410;2022-12-07T15:02:25;12.47;;;4.43;;
4500;SDS011;2263;54.654;9.410;2022-12-07T15:04:52;9.63;;;5.00;;
4500;SDS011;2263;54.654;9.410;2022-12-07T15:07:20;36.30;;;11.63;;
4500;SDS011;2263;54.654;9.410;2022-12-07T15:09:47;39.17;;;8.50;;
4500;SDS011;2263;54.654;9.410;2022-12-07T15:12:15;43.37;;;12.87;;
4500;SDS011;2263;54.654;9.410;2022-12-07T15:14:42;43.20;;;12.47;;
4500;SDS011;2263;54.654;9.410;2022-12-07T15:17:10;41.03;;;13.10;;
4500;SDS011;2263;54.654;9.410;2022-12-07T15:19:55;42.93;;;14.43;;
4500;SDS011;2263;54.654;9.410;2022-12-07T15:22:22;62.57;;;14.53;;
4500;SDS011;2263;54.654;9.410;2022-12-07T15:24:49;45.73;;;13.97;;
4500;SDS011;2263;54.654;9.410;2022-12-07T15:27:16;60.73;;;14.20;;
4500;SDS011;2263;54.654;9.410;2022-12-07T15:29:43;67.60;;;15.20;;
4500;SDS011;2263;54.654;9.410;2022-12-07T15:32:10;51.90;;;14.27;;
4500;SDS011;2263;54.654;9.410;2022-12-07T15:34:37;50.07;;;13.83;;
4500;SDS011;2263;54.654;9.410;2022-12-07T15:37:06;51.47;;;15.07;;
4500;SDS011;2263;54.654;9.410;2022-12-07T15:39:36;40.73;;;11.10;;
4500;SDS011;2263;54.654;9.410;2022-12-07T15:42:03;39.23;;;10.07;;
4500;SDS011;2263;54.654;9.410;2022-12-07T15:44:30;37.27;;;11.10;;
4500;SDS011;2263;54.654;9.410;2022-12-07T15:47:16;35.17;;;9.83;;
4500;SDS011;2263;54.654;9.410;2022-12-07T15:49:43;28.37;;;9.03;;
4500;SDS011;2263;54.654;9.410;2022-12-07T15:52:10;28.13;;;8.40;;
4500;SDS011;2263;54.654;9.410;2022-12-07T15:54:37;24.17;;;8.37;;
4500;SDS011;2263;54.654;9.410;2022-12-07T15:57:04;18.60;;;5.70;;
4500;SDS011;2263;54.654;9.410;2022-12-07T15:59:31;22.43;;;6.63;;
4500;SDS011;2263;54.654;9.410;2022-12-07T16:01:58;15.30;;;5.37;;
4500;SDS011;2263;54.654;9.410;2022-12-07T16:04:26;17.10;;;5.53;;
4500;SDS011;2263;54.654;9.410;2022-12-07T16:06:55;15.50;;;5.43;;
4500;SDS011;2263;54.654;9.410;2022-12-07T16:09:23;12.37;;;4.80;;
4500;SDS011;2263;54.654;9.410;2022-12-07T16:11:50;14.57;;;4.83;;
4500;SDS011;2263;54.654;9.410;2022-12-07T16:14:18;18.50;;;5.57;;
4500;SDS011;2263;54.654;9.410;2022-12-07T16:16:46;11.50;;;3.80;;
4500;SDS011;2263;54.654;9.410;2022-12-07T16:19:13;7.90;;;3.70;;
4500;SDS011;2263;54.654;9.410;2022-12-07T16:21:40;7.23;;;3.33;;
4500;SDS011;2263;54.654;9.410;2022-12-07T16:24:08;8.07;;;2.80;;
4500;SDS011;2263;54.654;9.410;2022-12-07T16:26:36;10.77;;;3.93;;
4500;SDS011;2263;54.654;9.410;2022-12-07T16:29:03;15.23;;;3.40;;
4500;SDS011;2263;54.654;9.410;2022-12-07T16:31:30;8.97;;;4.20;;
4500;SDS011;2263;54.654;9.410;2022-12-07T16:33:58;11.50;;;2.80;;
4500;SDS011;2263;54.654;9.410;2022-12-07T16:36:25;5.40;;;2.13;;
4500;SDS011;2263;54.654;9.410;2022-12-07T16:39:13;9.77;;;3.00;;
4500;SDS011;2263;54.654;9.410;2022-12-07T16:41:41;5.13;;;2.77;;
4500;SDS011;2263;54.654;9.410;2022-12-07T16:44:10;5.27;;;3.70;;
4500;SDS011;2263;54.654;9.410;2022-12-07T16:46:39;3.70;;;1.70;;
4500;SDS011;2263;54.654;9.410;2022-12-07T16:49:09;2.73;;;2.07;;
4500;SDS011;2263;54.654;9.410;2022-12-07T16:51:41;4.07;;;1.77;;
4500;SDS011;2263;54.654;9.410;2022-12-07T16:54:13;3.73;;;1.70;;
4500;SDS011;2263;54.654;9.410;2022-12-07T16:56:40;4.87;;;1.60;;
4500;SDS011;2263;54.654;9.410;2022-12-07T16:59:07;3.33;;;2.10;;
4500;SDS011;2263;54.654;9.410;2022-12-07T17:01:35;5.03;;;1.90;;
4500;SDS011;2263;54.654;9.410;2022-12-07T17:04:02;3.57;;;2.00;;
4500;SDS011;2263;54.654;9.410;2022-12-07T17:06:31;3.03;;;2.10;;
4500;SDS011;2263;54.654;9.410;2022-12-07T17:08:58;2.50;;;1.83;;
4500;SDS011;2263;54.654;9.410;2022-12-07T17:11:26;4.13;;;1.90;;
4500;SDS011;2263;54.654;9.410;2022-12-07T17:13:59;2.80;;;2.50;;
4500;SDS011;2263;54.654;9.410;2022-12-07T17:16:44;5.07;;;2.17;;
4500;SDS011;2263;54.654;9.410;2022-12-07T17:19:12;3.00;;;2.07;;
4500;SDS011;2263;54.654;9.410;2022-12-07T17:21:41;5.00;;;3.00;;
4500;SDS011;2263;54.654;9.410;2022-12-07T17:24:09;2.90;;;2.63;;
4500;SDS011;2263;54.654;9.410;2022-12-07T17:26:38;3.80;;;2.67;;
4500;SDS011;2263;54.654;9.410;2022-12-07T17:29:06;2.80;;;2.40;;
4500;SDS011;2263;54.654;9.410;2022-12-07T17:31:38;7.67;;;2.27;;
4500;SDS011;2263;54.654;9.410;2022-12-07T17:34:11;4.43;;;3.00;;
4500;SDS011;2263;54.654;9.410;2022-12-07T17:36:39;4.17;;;2.90;;
4500;SDS011;2263;54.654;9.410;2022-12-07T17:39:11;2.87;;;2.67;;
4500;SDS011;2263;54.654;9.410;2022-12-07T17:41:40;5.23;;;2.77;;
4500;SDS011;2263;54.654;9.410;2022-12-07T17:44:26;5.27;;;2.67;;
4500;SDS011;2263;54.654;9.410;2022-12-07T17:46:53;4.33;;;3.07;;
4500;SDS011;2263;54.654;9.410;2022-12-07T17:49:24;5.23;;;4.23;;
4500;SDS011;2263;54.654;9.410;2022-12-07T17:51:52;7.07;;;4.23;;
4500;SDS011;2263;54.654;9.410;2022-12-07T17:54:37;6.20;;;4.30;;
4500;SDS011;2263;54.654;9.410;2022-12-07T17:57:05;6.63;;;4.77;;
4500;SDS011;2263;54.654;9.410;2022-12-07T17:59:32;5.30;;;4.33;;
4500;SDS011;2263;54.654;9.410;2022-12-07T18:02:02;6.63;;;4.60;;
4500;SDS011;2263;54.654;9.410;2022-12-07T18:04:32;5.07;;;4.57;;
4500;SDS011;2263;54.654;9.410;2022-12-07T18:06:59;6.13;;;4.20;;
4500;SDS011;2263;54.654;9.410;2022-12-07T18:09:26;5.70;;;4.73;;
4500;SDS011;2263;54.654;9.410;2022-12-07T18:11:53;6.73;;;4.33;;
4500;SDS011;2263;54.654;9.410;2022-12-07T18:14:21;8.47;;;5.20;;
4500;SDS011;2263;54.654;9.410;2022-12-07T18:16:48;10.50;;;5.27;;
4500;SDS011;2263;54.654;9.410;2022-12-07T18:19:16;21.57;;;12.70;;
4500;SDS011;2263;54.654;9.410;2022-12-07T18:21:46;83.83;;;48.87;;
4500;SDS011;2263;54.654;9.410;2022-12-07T18:24:17;59.03;;;34.13;;
4500;SDS011;2263;54.654;9.410;2022-12-07T18:26:45;44.70;;;30.57;;
4500;SDS011;2263;54.654;9.410;2022-12-07T18:29:14;43.07;;;28.77;;